createdAt,value
2022-10-31T00:01:21.940Z,19.27
2022-10-31T00:03:48.893Z,22.98
2022-10-31T00:06:18.993Z,15.50
2022-10-31T00:08:53.330Z,18.02
2022-10-31T00:11:20.215Z,17.70
2022-10-31T00:13:47.022Z,21.50
2022-10-31T00:16:18.198Z,20.17
2022-10-31T00:18:48.615Z,26.90
2022-10-31T00:21:15.859Z,17.70
2022-10-31T00:23:42.622Z,24.67
2022-10-31T00:26:09.476Z,19.38
2022-10-31T00:28:36.298Z,20.45
2022-10-31T00:31:05.618Z,20.52
2022-10-31T00:33:35.295Z,20.60
2022-10-31T00:36:02.454Z,19.45
2022-10-31T00:38:29.390Z,19.55
2022-10-31T00:40:56.179Z,21.48
2022-10-31T00:43:23.110Z,21.42
2022-10-31T00:45:49.869Z,20.60
2022-10-31T00:48:16.764Z,19.75
2022-10-31T00:50:43.583Z,20.70
2022-10-31T00:53:10.326Z,17.23
2022-10-31T00:55:37.612Z,18.25
2022-10-31T00:58:04.909Z,17.50
2022-10-31T01:00:33.038Z,15.48
2022-10-31T01:03:00.171Z,17.00
2022-10-31T01:05:27.293Z,16.15
2022-10-31T01:07:54.050Z,17.85
2022-10-31T01:10:20.868Z,22.33
2022-10-31T01:12:49.769Z,16.45
2022-10-31T01:15:22.500Z,24.77
2022-10-31T01:17:50.386Z,19.38
2022-10-31T01:20:18.136Z,20.45
2022-10-31T01:22:44.875Z,16.45
2022-10-31T01:25:12.323Z,22.25
2022-10-31T01:27:39.111Z,17.15
2022-10-31T01:30:08.180Z,20.27
2022-10-31T01:32:35.131Z,17.00
2022-10-31T01:35:01.892Z,16.58
2022-10-31T01:37:28.645Z,20.38
2022-10-31T01:39:55.370Z,24.02
2022-10-31T01:42:24.351Z,19.17
2022-10-31T01:44:57.914Z,20.15
2022-10-31T01:47:48.023Z,17.95
2022-10-31T01:50:31.405Z,17.77
2022-10-31T01:53:00.046Z,18.75
2022-10-31T01:55:34.873Z,15.80
2022-10-31T01:58:15.469Z,20.40
2022-10-31T02:00:49.060Z,20.13
2022-10-31T02:03:17.243Z,15.07
2022-10-31T02:14:10.157Z,16.55
2022-10-31T02:16:37.016Z,20.33
2022-10-31T02:19:06.059Z,16.92
2022-10-31T02:21:42.604Z,19.48
2022-10-31T02:24:47.394Z,21.00
2022-10-31T02:27:49.417Z,15.73
2022-10-31T02:30:25.511Z,14.65
2022-10-31T02:33:16.168Z,16.67
2022-10-31T02:35:48.760Z,18.67
2022-10-31T02:38:42.230Z,19.90
2022-10-31T02:41:26.476Z,16.85
2022-10-31T02:44:22.767Z,17.48
2022-10-31T02:47:03.277Z,15.82
2022-10-31T02:49:58.084Z,15.73
2022-10-31T02:52:27.268Z,18.45
2022-10-31T02:54:59.721Z,17.95
2022-10-31T02:57:35.489Z,14.15
2022-10-31T03:00:06.441Z,16.98
2022-10-31T03:02:57.329Z,22.00
2022-10-31T03:06:01.411Z,20.20
2022-10-31T03:09:00.740Z,19.20
2022-10-31T03:11:40.947Z,18.67
2022-10-31T03:14:13.949Z,24.13
2022-10-31T03:16:47.573Z,21.45
2022-10-31T03:19:29.573Z,15.82
2022-10-31T03:22:05.755Z,14.82
2022-10-31T03:24:38.307Z,17.00
2022-10-31T03:27:09.136Z,17.92
2022-10-31T03:29:38.066Z,17.30
2022-10-31T03:32:20.109Z,18.08
2022-10-31T03:34:48.283Z,14.48
2022-10-31T03:37:19.597Z,20.20
2022-10-31T03:39:48.699Z,15.85
2022-10-31T03:42:19.482Z,18.50
2022-10-31T03:44:56.856Z,24.02
2022-10-31T03:47:23.833Z,23.23
2022-10-31T03:49:51.496Z,30.88
2022-10-31T03:52:36.135Z,27.35
2022-10-31T03:55:25.059Z,24.13
2022-10-31T04:00:56.448Z,22.35
2022-10-31T04:03:31.878Z,26.65
2022-10-31T04:06:05.216Z,26.80
2022-10-31T04:08:37.707Z,27.55
2022-10-31T04:11:06.816Z,27.42
2022-10-31T04:13:40.722Z,25.38
2022-10-31T04:16:17.124Z,23.25
2022-10-31T04:21:11.771Z,17.98
2022-10-31T04:23:38.816Z,18.73
2022-10-31T04:26:14.437Z,19.48
2022-10-31T04:28:44.088Z,15.85
2022-10-31T04:31:12.939Z,21.45
2022-10-31T04:33:40.058Z,14.88
2022-10-31T04:36:07.395Z,18.60
2022-10-31T04:38:34.604Z,22.05
2022-10-31T04:41:03.598Z,19.45
2022-10-31T04:43:51.067Z,24.33
2022-10-31T04:46:17.966Z,22.35
2022-10-31T04:48:44.952Z,19.88
2022-10-31T04:51:12.009Z,19.60
2022-10-31T04:53:38.723Z,20.10
2022-10-31T04:56:24.077Z,19.98
2022-10-31T04:58:56.596Z,24.52
2022-10-31T05:01:25.009Z,23.42
2022-10-31T05:03:51.828Z,23.23
2022-10-31T05:06:18.589Z,25.73
2022-10-31T05:08:46.319Z,19.55
2022-10-31T05:11:13.989Z,17.65
2022-10-31T05:13:40.926Z,19.15
2022-10-31T05:16:13.298Z,15.32
2022-10-31T05:18:48.667Z,18.35
2022-10-31T05:21:44.047Z,22.70
2022-10-31T05:24:11.708Z,23.23
2022-10-31T05:26:40.602Z,24.00
2022-10-31T05:29:07.296Z,21.02
2022-10-31T05:31:34.360Z,26.90
2022-10-31T05:34:02.681Z,21.88
2022-10-31T05:36:48.143Z,32.65
2022-10-31T05:39:22.002Z,33.72
2022-10-31T05:41:53.672Z,36.42
2022-10-31T05:44:23.468Z,34.25
2022-10-31T05:47:10.115Z,28.25
2022-10-31T05:50:12.303Z,25.23
2022-10-31T05:52:41.706Z,23.67
2022-10-31T05:55:21.306Z,24.27
2022-10-31T05:58:23.419Z,21.23
2022-10-31T06:03:33.546Z,18.05
2022-10-31T06:06:03.202Z,21.20
2022-10-31T06:08:33.960Z,22.23
2022-10-31T06:11:05.162Z,14.95
2022-10-31T06:13:50.488Z,22.77
2022-10-31T06:16:22.957Z,19.95
2022-10-31T06:18:50.978Z,21.25
2022-10-31T06:21:19.271Z,19.88
2022-10-31T06:23:48.757Z,20.45
2022-10-31T06:26:54.032Z,20.15
2022-10-31T06:29:21.869Z,23.52
2022-10-31T06:32:01.378Z,25.60
2022-10-31T06:34:29.340Z,20.23
2022-10-31T06:36:56.083Z,25.00
2022-10-31T06:39:25.434Z,22.60
2022-10-31T06:41:53.830Z,23.85
2022-10-31T06:44:22.182Z,21.55
2022-10-31T06:46:48.918Z,26.05
2022-10-31T06:49:34.177Z,28.88
2022-10-31T06:52:03.458Z,29.33
2022-10-31T06:54:30.233Z,24.60
2022-10-31T06:56:57.180Z,26.83
2022-10-31T06:59:25.131Z,31.10
2022-10-31T07:02:11.741Z,37.67
2022-10-31T07:04:40.222Z,28.83
2022-10-31T07:07:07.861Z,30.55
2022-10-31T07:09:36.061Z,30.27
2022-10-31T07:12:04.722Z,30.35
2022-10-31T07:14:35.285Z,31.58
2022-10-31T07:17:02.683Z,30.48
2022-10-31T07:19:34.420Z,34.53
2022-10-31T07:22:02.447Z,38.05
2022-10-31T07:24:32.083Z,33.13
2022-10-31T07:27:17.224Z,27.77
2022-10-31T07:29:45.848Z,29.20
2022-10-31T07:32:12.564Z,31.23
2022-10-31T07:34:47.480Z,29.55
2022-10-31T07:37:20.754Z,28.90
2022-10-31T07:39:48.442Z,37.65
2022-10-31T07:42:15.165Z,31.92
2022-10-31T07:44:44.944Z,28.48
2022-10-31T07:47:30.190Z,25.80
2022-10-31T07:50:02.800Z,29.48
2022-10-31T07:52:48.463Z,32.13
2022-10-31T07:55:35.622Z,30.30
2022-10-31T07:58:05.432Z,31.60
2022-10-31T08:00:34.129Z,28.50
2022-10-31T08:03:08.069Z,37.33
2022-10-31T08:06:04.255Z,28.50
2022-10-31T08:08:53.525Z,36.78
2022-10-31T08:11:20.268Z,42.25
2022-10-31T08:13:48.041Z,32.13
2022-10-31T08:16:15.563Z,32.30
2022-10-31T08:18:56.699Z,33.65
2022-10-31T08:21:24.271Z,34.00
2022-10-31T08:23:51.005Z,30.40
2022-10-31T08:26:20.459Z,33.70
2022-10-31T08:28:50.748Z,36.08
2022-10-31T08:31:19.964Z,31.13
2022-10-31T08:33:46.655Z,34.70
2022-10-31T08:36:19.456Z,31.95
2022-10-31T08:38:59.115Z,35.10
2022-10-31T08:41:28.869Z,29.60
2022-10-31T08:43:55.662Z,26.52
2022-10-31T08:46:22.676Z,32.60
2022-10-31T08:48:50.210Z,27.50
2022-10-31T08:51:18.025Z,34.17
2022-10-31T08:53:45.027Z,33.72
2022-10-31T08:56:44.199Z,40.25
2022-10-31T08:59:28.679Z,31.05
2022-10-31T09:02:20.383Z,30.40
2022-10-31T09:04:49.503Z,36.08
2022-10-31T09:07:21.513Z,42.35
2022-10-31T09:09:48.574Z,37.23
2022-10-31T09:12:15.337Z,33.58
2022-10-31T09:15:01.710Z,34.28
2022-10-31T09:17:54.766Z,33.25
2022-10-31T09:20:32.418Z,34.35
2022-10-31T09:23:01.537Z,31.77
2022-10-31T09:25:30.512Z,30.95
2022-10-31T09:28:33.366Z,31.92
2022-10-31T09:31:08.941Z,33.80
2022-10-31T09:33:58.377Z,37.33
2022-10-31T09:36:39.037Z,34.15
2022-10-31T09:39:13.107Z,34.30
2022-10-31T09:42:05.549Z,28.70
2022-10-31T09:45:01.895Z,33.67
2022-10-31T09:47:55.188Z,29.75
2022-10-31T09:50:57.440Z,44.17
2022-10-31T09:53:59.758Z,39.90
2022-10-31T09:59:01.482Z,34.88
2022-10-31T10:01:49.542Z,33.83
2022-10-31T10:04:37.244Z,35.05
2022-10-31T10:07:35.281Z,40.80
2022-10-31T10:10:39.081Z,40.92
2022-10-31T10:13:42.652Z,30.33
2022-10-31T10:16:39.391Z,41.08
2022-10-31T10:19:29.996Z,36.97
2022-10-31T10:22:06.413Z,39.03
2022-10-31T10:25:14.177Z,33.17
2022-10-31T10:27:54.714Z,36.03
2022-10-31T10:30:27.380Z,34.78
2022-10-31T10:33:00.215Z,29.63
2022-10-31T10:35:39.255Z,29.60
2022-10-31T10:38:24.883Z,37.80
2022-10-31T10:40:54.766Z,37.97
2022-10-31T10:43:40.023Z,36.78
2022-10-31T10:46:47.447Z,34.53
2022-10-31T10:49:20.231Z,27.80
2022-10-31T10:52:07.306Z,30.25
2022-10-31T10:54:54.000Z,31.42
2022-10-31T10:57:35.877Z,29.90
2022-10-31T11:00:17.208Z,33.15
2022-10-31T11:02:46.487Z,28.05
2022-10-31T11:05:35.959Z,36.75
2022-10-31T11:08:04.052Z,30.10
2022-10-31T11:10:31.015Z,37.55
2022-10-31T11:13:19.579Z,32.95
2022-10-31T11:15:54.760Z,26.80
2022-10-31T11:18:28.173Z,28.77
2022-10-31T11:20:57.848Z,29.98
2022-10-31T11:23:26.773Z,30.45
2022-10-31T11:26:06.223Z,33.22
2022-10-31T11:28:36.001Z,24.25
2022-10-31T11:31:09.751Z,35.38
2022-10-31T11:33:44.725Z,30.58
2022-10-31T11:36:35.189Z,26.65
2022-10-31T11:39:04.426Z,25.45
2022-10-31T11:41:39.357Z,28.48
2022-10-31T11:44:15.465Z,33.25
2022-10-31T11:46:56.304Z,28.90
2022-10-31T11:49:23.163Z,30.55
2022-10-31T11:51:55.433Z,26.60
2022-10-31T11:54:30.595Z,25.45
2022-10-31T11:56:57.957Z,31.05
2022-10-31T11:59:26.973Z,27.90
2022-10-31T12:01:55.574Z,31.20
2022-10-31T12:04:52.388Z,24.08
2022-10-31T12:07:19.196Z,24.95
2022-10-31T12:09:46.322Z,26.70
2022-10-31T12:12:27.156Z,25.45
2022-10-31T12:15:00.242Z,17.50
2022-10-31T12:17:31.424Z,21.95
2022-10-31T12:20:23.712Z,24.20
2022-10-31T12:22:58.621Z,22.83
2022-10-31T12:25:44.437Z,24.10
2022-10-31T12:28:30.853Z,24.85
2022-10-31T12:31:23.190Z,20.55
2022-10-31T12:34:18.093Z,28.50
2022-10-31T12:36:54.397Z,21.70
2022-10-31T12:39:30.180Z,24.90
2022-10-31T12:42:28.015Z,27.75
2022-10-31T12:45:39.544Z,24.42
2022-10-31T12:48:23.762Z,25.40
2022-10-31T12:51:08.579Z,19.45
2022-10-31T12:54:03.317Z,13.45
2022-10-31T12:57:04.021Z,16.73
2022-10-31T12:59:58.200Z,18.17
2022-10-31T13:02:40.108Z,21.33
2022-10-31T13:05:33.401Z,13.35
2022-10-31T13:08:29.639Z,14.80
2022-10-31T13:11:19.297Z,18.60
2022-10-31T13:13:58.375Z,17.35
2022-10-31T13:16:42.326Z,13.85
2022-10-31T13:19:26.686Z,14.85
2022-10-31T13:22:08.915Z,12.63
2022-10-31T13:24:42.881Z,16.40
2022-10-31T13:27:21.527Z,10.02
2022-10-31T13:29:56.312Z,19.85
2022-10-31T13:32:23.663Z,10.07
2022-10-31T13:34:57.050Z,12.13
2022-10-31T13:37:55.060Z,8.20
2022-10-31T13:40:48.508Z,13.75
2022-10-31T13:43:24.369Z,16.15
2022-10-31T13:45:56.254Z,12.70
2022-10-31T13:48:26.047Z,10.35
2022-10-31T13:51:12.269Z,15.75
2022-10-31T13:53:58.337Z,11.85
2022-10-31T13:56:32.069Z,14.20
2022-10-31T13:59:09.867Z,15.88
2022-10-31T14:01:37.988Z,12.25
2022-10-31T14:04:39.720Z,14.45
2022-10-31T14:07:16.491Z,12.48
2022-10-31T14:10:03.018Z,12.88
2022-10-31T14:12:40.042Z,18.75
2022-10-31T14:15:20.141Z,13.35
2022-10-31T14:17:57.687Z,13.68
2022-10-31T14:20:41.024Z,16.80
2022-10-31T14:23:33.550Z,12.25
2022-10-31T14:26:32.212Z,12.40
2022-10-31T14:29:00.538Z,11.20
2022-10-31T14:31:52.933Z,9.10
2022-10-31T14:34:22.627Z,12.98
2022-10-31T14:36:56.431Z,8.23
2022-10-31T14:39:54.165Z,13.25
2022-10-31T14:42:57.787Z,11.55
2022-10-31T14:45:33.482Z,11.73
2022-10-31T14:48:08.169Z,17.33
2022-10-31T14:50:38.041Z,13.05
2022-10-31T14:53:08.205Z,10.27
2022-10-31T14:55:35.136Z,15.70
2022-10-31T14:58:07.371Z,11.77
2022-10-31T15:00:36.477Z,13.52
2022-10-31T15:03:16.829Z,19.73
2022-10-31T15:05:52.650Z,17.02
2022-10-31T15:08:44.782Z,14.70
2022-10-31T15:13:50.329Z,15.65
2022-10-31T15:16:25.605Z,12.68
2022-10-31T15:19:03.778Z,19.05
2022-10-31T15:21:30.926Z,9.82
2022-10-31T15:23:59.980Z,12.65
2022-10-31T15:26:48.437Z,13.05
2022-10-31T15:29:18.162Z,11.23
2022-10-31T15:31:56.144Z,13.85
2022-10-31T15:34:39.358Z,13.95
2022-10-31T15:37:12.656Z,11.55
2022-10-31T15:39:40.330Z,9.50
2022-10-31T15:42:15.816Z,17.13
2022-10-31T15:44:44.508Z,18.45
2022-10-31T15:47:25.204Z,15.95
2022-10-31T15:49:56.804Z,16.27
2022-10-31T15:52:32.320Z,12.57
2022-10-31T15:55:06.448Z,12.40
2022-10-31T15:57:34.092Z,15.68
2022-10-31T16:00:00.857Z,11.57
2022-10-31T16:02:28.737Z,9.32
2022-10-31T16:04:58.656Z,12.85
2022-10-31T16:07:26.543Z,17.08
2022-10-31T16:10:00.502Z,15.75
2022-10-31T16:12:43.657Z,15.18
2022-10-31T16:15:18.835Z,12.88
2022-10-31T16:17:48.704Z,8.07
2022-10-31T16:20:38.692Z,16.35
2022-10-31T16:23:05.490Z,14.50
2022-10-31T16:25:39.552Z,15.32
2022-10-31T16:28:28.299Z,21.55
2022-10-31T16:30:59.852Z,24.17
2022-10-31T16:33:36.963Z,15.68
2022-10-31T16:36:35.389Z,16.80
2022-10-31T16:39:02.649Z,15.85
2022-10-31T16:41:29.664Z,18.38
2022-10-31T16:43:56.432Z,20.65
2022-10-31T16:46:28.031Z,18.92
2022-10-31T16:48:55.485Z,18.92
2022-10-31T16:51:22.309Z,20.55
2022-10-31T16:53:52.365Z,16.63
2022-10-31T16:56:29.278Z,21.85
2022-10-31T16:58:56.037Z,13.23
2022-10-31T17:01:23.411Z,16.80
2022-10-31T17:03:50.240Z,20.02
2022-10-31T17:06:17.270Z,17.98
2022-10-31T17:08:44.049Z,18.02
2022-10-31T17:11:19.970Z,21.77
2022-10-31T17:13:46.816Z,24.02
2022-10-31T17:16:15.290Z,20.55
2022-10-31T17:18:43.713Z,18.50
2022-10-31T17:21:19.679Z,17.02
2022-10-31T17:23:46.607Z,15.38
2022-10-31T17:26:13.358Z,20.38
2022-10-31T17:28:40.310Z,26.75
2022-10-31T17:31:20.088Z,22.83
2022-10-31T17:33:46.875Z,26.65
2022-10-31T17:36:13.616Z,23.20
2022-10-31T17:38:40.470Z,24.63
2022-10-31T17:41:11.231Z,22.05
2022-10-31T17:43:38.560Z,26.50
2022-10-31T17:46:06.117Z,26.58
2022-10-31T17:48:34.600Z,20.20
2022-10-31T17:51:05.779Z,32.25
2022-10-31T17:53:34.459Z,21.02
2022-10-31T17:56:06.488Z,22.42
2022-10-31T17:58:35.229Z,19.63
2022-10-31T18:01:08.279Z,18.63
2022-10-31T18:03:35.209Z,23.38
2022-10-31T18:06:02.057Z,19.75
2022-10-31T18:08:31.494Z,18.52
2022-10-31T18:11:02.109Z,21.75
2022-10-31T18:13:29.044Z,23.83
2022-10-31T18:15:55.758Z,25.58
2022-10-31T18:18:22.572Z,23.70
2022-10-31T18:20:49.361Z,17.95
2022-10-31T18:23:16.126Z,21.02
2022-10-31T18:25:43.432Z,21.80
2022-10-31T18:28:10.573Z,23.00
2022-10-31T18:30:41.521Z,25.20
2022-10-31T18:33:08.947Z,19.87
2022-10-31T18:35:39.702Z,20.50
2022-10-31T18:38:07.338Z,20.90
2022-10-31T18:40:35.630Z,26.17
2022-10-31T18:43:03.427Z,29.75
2022-10-31T18:45:45.427Z,20.75
2022-10-31T18:48:14.974Z,19.63
2022-10-31T18:50:42.211Z,18.98
2022-10-31T18:53:09.108Z,23.38
2022-10-31T18:55:43.906Z,25.15
2022-10-31T18:58:14.250Z,20.35
2022-10-31T19:00:41.228Z,23.67
2022-10-31T19:03:07.942Z,27.10
2022-10-31T19:05:34.722Z,29.33
2022-10-31T19:08:01.426Z,27.77
2022-10-31T19:10:28.312Z,29.00
2022-10-31T19:12:55.014Z,27.15
2022-10-31T19:15:21.694Z,25.58
2022-10-31T19:17:49.218Z,25.38
2022-10-31T19:20:16.023Z,25.10
2022-10-31T19:22:42.831Z,25.45
2022-10-31T19:25:11.080Z,22.75
2022-10-31T19:27:38.756Z,28.55
2022-10-31T19:30:06.860Z,19.13
2022-10-31T19:32:33.596Z,30.88
2022-10-31T19:35:00.413Z,27.80
2022-10-31T19:37:27.117Z,22.95
2022-10-31T19:39:53.833Z,23.05
2022-10-31T19:42:20.811Z,18.77
2022-10-31T19:44:47.585Z,23.75
2022-10-31T19:47:14.263Z,19.67
2022-10-31T19:49:40.931Z,18.90
2022-10-31T19:52:07.734Z,19.35
2022-10-31T19:54:34.610Z,15.27
2022-10-31T19:57:01.410Z,24.27
2022-10-31T19:59:28.140Z,26.58
2022-10-31T20:01:54.927Z,24.67
2022-10-31T20:04:21.735Z,26.60
2022-10-31T20:06:48.441Z,20.73
2022-10-31T20:09:15.562Z,22.40
2022-10-31T20:11:44.560Z,27.42
2022-10-31T20:14:13.549Z,21.58
2022-10-31T20:16:40.514Z,21.33
2022-10-31T20:19:07.794Z,18.85
2022-10-31T20:21:38.264Z,25.90
2022-10-31T20:24:07.248Z,19.67
2022-10-31T20:26:34.935Z,16.10
2022-10-31T20:29:02.215Z,20.25
2022-10-31T20:31:34.331Z,27.90
2022-10-31T20:34:01.346Z,23.33
2022-10-31T20:36:29.539Z,23.55
2022-10-31T20:38:56.571Z,15.70
2022-10-31T20:41:23.342Z,27.55
2022-10-31T20:43:50.346Z,17.17
2022-10-31T20:46:20.174Z,19.08
2022-10-31T20:48:47.542Z,21.55
2022-10-31T20:51:21.424Z,18.58
2022-10-31T20:53:50.166Z,26.30
2022-10-31T20:56:19.287Z,19.17
2022-10-31T20:58:46.717Z,19.40
2022-10-31T21:01:19.252Z,20.50
2022-10-31T21:03:46.476Z,23.10
2022-10-31T21:06:14.654Z,20.10
2022-10-31T21:08:42.688Z,19.20
2022-10-31T21:11:16.197Z,23.17
2022-10-31T21:13:44.386Z,17.70
2022-10-31T21:16:13.888Z,15.18
2022-10-31T21:18:42.352Z,16.42
2022-10-31T21:21:12.816Z,29.25
2022-10-31T21:23:39.717Z,24.17
2022-10-31T21:26:08.433Z,23.92
2022-10-31T21:28:36.028Z,22.58
2022-10-31T21:31:07.397Z,19.58
2022-10-31T21:33:34.591Z,21.73
2022-10-31T21:36:01.312Z,19.13
2022-10-31T21:38:28.007Z,21.73
2022-10-31T21:41:02.373Z,20.50
2022-10-31T21:43:29.699Z,19.73
2022-10-31T21:46:01.624Z,22.55
2022-10-31T21:50:55.715Z,20.15
2022-10-31T21:53:41.026Z,20.75
2022-10-31T21:56:08.234Z,20.70
2022-10-31T21:58:37.764Z,20.10
2022-10-31T22:01:05.678Z,20.15
2022-10-31T22:03:36.949Z,20.73
2022-10-31T22:06:08.413Z,18.63
2022-10-31T22:08:35.364Z,17.10
2022-10-31T22:11:04.073Z,17.70
2022-10-31T22:13:34.698Z,24.15
2022-10-31T22:16:22.567Z,16.10
2022-10-31T22:18:53.835Z,18.95
2022-10-31T22:21:23.783Z,20.88
2022-10-31T22:23:55.992Z,18.83
2022-10-31T22:26:23.849Z,20.15
2022-10-31T22:29:02.983Z,32.83
2022-10-31T22:31:31.444Z,27.88
2022-10-31T22:33:58.547Z,18.65
2022-10-31T22:36:28.011Z,20.27
2022-10-31T22:38:54.765Z,21.35
2022-10-31T22:41:28.821Z,21.13
2022-10-31T22:43:56.763Z,18.75
2022-10-31T22:46:35.736Z,13.60
2022-10-31T22:49:09.861Z,23.27
2022-10-31T22:51:39.188Z,23.80
2022-10-31T22:54:09.352Z,14.70
2022-10-31T22:56:36.212Z,26.23
2022-10-31T22:59:03.548Z,27.40
2022-10-31T23:01:33.197Z,16.13
2022-10-31T23:04:01.172Z,21.38
2022-10-31T23:06:32.490Z,17.67
2022-10-31T23:09:00.890Z,15.73
2022-10-31T23:11:32.292Z,21.27
2022-10-31T23:14:10.598Z,16.40
2022-10-31T23:16:40.566Z,22.23
2022-10-31T23:19:08.735Z,20.38
2022-10-31T23:21:54.788Z,23.45
2022-10-31T23:24:26.968Z,19.15
2022-10-31T23:27:10.254Z,19.20
2022-10-31T23:29:48.639Z,20.38
2022-10-31T23:32:36.182Z,15.93
2022-10-31T23:35:11.976Z,20.75
2022-10-31T23:37:39.013Z,18.65
2022-10-31T23:40:08.565Z,17.60
2022-10-31T23:42:35.314Z,15.82
2022-10-31T23:45:01.992Z,21.08
2022-10-31T23:47:28.661Z,21.02
2022-10-31T23:49:55.333Z,25.00
2022-10-31T23:52:22.033Z,18.13
2022-10-31T23:54:48.718Z,18.75
2022-10-31T23:57:16.540Z,20.33
2022-10-31T23:59:43.363Z,18.67
